Terminal Aerodrome Forecast
Issued by NWS

Current Version | Previous Version | Text Only | Print | Product List | Glossary Off
Versions: 1 2 3 4 5 6 7 8 9 10 11 12 13 14 15 16 17 18 19 20 21

000
FTUS41 KRLX 240900 AAA
TAFCKB
TAF AMD
KCKB 240910Z 2409/2506 01008KT P6SM OVC015
      TEMPO 2410/2412 4SM -SHRA
     FM241300 36008KT P6SM BKN025
     FM241700 34006KT P6SM BKN040
     FM242300 34005KT P6SM SCT045
     FM250400 00000KT P6SM SKC=

USA.gov is the U.S. government's official web portal to all federal, state and local government web resources and services.